createdAt,value
2018-04-25T00:01:06.068Z,62.28
2018-04-25T00:03:34.298Z,62.46
2018-04-25T00:06:02.594Z,62.15
2018-04-25T00:08:30.845Z,61.78
2018-04-25T00:10:59.128Z,61.80
2018-04-25T00:13:27.391Z,62.07
2018-04-25T00:15:55.756Z,62.33
2018-04-25T00:18:23.938Z,62.06
2018-04-25T00:20:52.210Z,61.84
2018-04-25T00:23:20.513Z,62.02
2018-04-25T00:25:48.805Z,62.39
2018-04-25T00:28:17.059Z,62.64
2018-04-25T00:30:45.335Z,63.02
2018-04-25T00:33:13.598Z,62.77
2018-04-25T00:35:41.891Z,63.03
2018-04-25T00:38:10.136Z,63.18
2018-04-25T00:40:38.415Z,63.44
2018-04-25T00:43:06.684Z,63.14
2018-04-25T00:45:35.032Z,63.29
2018-04-25T00:48:03.295Z,63.10
2018-04-25T00:50:31.567Z,62.91
2018-04-25T00:53:00.759Z,62.95
2018-04-25T00:55:29.038Z,63.14
2018-04-25T00:57:57.311Z,63.40
2018-04-25T01:00:25.610Z,63.60
2018-04-25T01:02:53.879Z,63.72
2018-04-25T01:05:22.161Z,63.82
2018-04-25T01:07:50.442Z,63.85
2018-04-25T01:10:18.780Z,64.08
2018-04-25T01:12:47.040Z,64.35
2018-04-25T01:15:15.306Z,64.51
2018-04-25T01:17:43.588Z,64.71
2018-04-25T01:20:11.871Z,65.48
2018-04-25T01:22:40.164Z,65.59
2018-04-25T01:25:15.130Z,65.22
2018-04-25T01:27:56.530Z,65.30
2018-04-25T01:30:24.798Z,65.24
2018-04-25T01:32:53.088Z,65.04
2018-04-25T01:35:21.365Z,64.81
2018-04-25T01:37:52.254Z,64.92
2018-04-25T01:40:20.491Z,64.38
2018-04-25T01:42:49.822Z,64.29
2018-04-25T01:45:23.844Z,64.21
2018-04-25T01:48:05.361Z,64.03
2018-04-25T01:50:37.489Z,64.06
2018-04-25T01:53:17.599Z,64.12
2018-04-25T02:00:44.994Z,64.42
2018-04-25T02:03:12.701Z,64.17
2018-04-25T02:05:40.986Z,64.47
2018-04-25T02:08:09.274Z,64.71
2018-04-25T02:10:37.598Z,64.98
2018-04-25T02:13:05.829Z,64.96
2018-04-25T02:15:34.123Z,65.02
2018-04-25T02:18:02.393Z,64.92
2018-04-25T02:20:30.657Z,65.06
2018-04-25T02:22:58.926Z,65.29
2018-04-25T02:25:27.216Z,65.48
2018-04-25T02:27:55.473Z,65.63
2018-04-25T02:30:23.755Z,65.87
2018-04-25T02:32:52.018Z,65.97
2018-04-25T02:35:20.310Z,65.80
2018-04-25T02:37:48.599Z,66.25
2018-04-25T02:40:16.879Z,66.42
2018-04-25T02:42:45.162Z,66.50
2018-04-25T02:45:13.411Z,66.36
2018-04-25T02:47:41.683Z,66.33
2018-04-25T02:50:09.954Z,66.27
2018-04-25T02:52:38.235Z,66.46
2018-04-25T02:55:06.488Z,66.55
2018-04-25T02:57:34.785Z,66.92
2018-04-25T03:00:03.047Z,66.88
2018-04-25T03:02:31.359Z,66.99
2018-04-25T03:04:59.633Z,67.35
2018-04-25T03:07:27.901Z,67.50
2018-04-25T03:09:56.219Z,67.48
2018-04-25T03:12:25.148Z,67.42
2018-04-25T03:14:53.431Z,67.59
2018-04-25T03:17:21.719Z,67.77
2018-04-25T03:19:49.988Z,67.47
2018-04-25T03:22:18.240Z,67.16
2018-04-25T03:24:46.548Z,67.40
2018-04-25T03:27:14.846Z,67.63
2018-04-25T03:29:43.449Z,70.29
2018-04-25T03:32:11.729Z,69.02
2018-04-25T03:34:40.020Z,68.61
2018-04-25T03:37:08.269Z,68.09
2018-04-25T03:39:36.563Z,67.89
2018-04-25T03:42:04.822Z,67.74
2018-04-25T03:44:33.110Z,67.92
2018-04-25T03:47:01.475Z,68.16
2018-04-25T03:49:29.830Z,67.77
2018-04-25T03:51:58.094Z,67.73
2018-04-25T03:54:26.406Z,67.82
2018-04-25T03:56:54.631Z,67.81
2018-04-25T03:59:22.939Z,67.99
2018-04-25T04:01:51.225Z,67.69
2018-04-25T04:04:19.517Z,67.43
2018-04-25T04:06:47.790Z,67.70
2018-04-25T04:09:16.079Z,67.73
2018-04-25T04:11:44.378Z,68.32
2018-04-25T04:14:12.778Z,69.18
2018-04-25T04:16:41.058Z,69.56
2018-04-25T04:19:09.336Z,70.28
2018-04-25T04:21:38.014Z,70.55
2018-04-25T04:24:06.278Z,70.76
2018-04-25T04:26:34.569Z,70.92
2018-04-25T04:29:03.070Z,71.00
2018-04-25T04:31:31.348Z,70.84
2018-04-25T04:33:59.639Z,70.82
2018-04-25T04:36:27.954Z,70.78
2018-04-25T04:38:56.365Z,70.23
2018-04-25T04:41:24.616Z,69.44
2018-04-25T04:43:52.894Z,68.89
2018-04-25T04:46:21.146Z,69.19
2018-04-25T04:48:49.448Z,70.07
2018-04-25T04:51:17.707Z,70.37
2018-04-25T04:53:46.117Z,70.86
2018-04-25T04:56:14.546Z,71.02
2018-04-25T04:58:42.855Z,71.46
2018-04-25T05:01:11.554Z,71.51
2018-04-25T05:03:39.855Z,71.67
2018-04-25T05:06:08.124Z,71.97
2018-04-25T05:08:36.449Z,71.69
2018-04-25T05:11:04.686Z,71.09
2018-04-25T05:13:32.977Z,70.81
2018-04-25T05:16:01.616Z,70.26
2018-04-25T05:18:30.638Z,69.76
2018-04-25T05:20:58.928Z,69.45
2018-04-25T05:23:27.350Z,69.16
2018-04-25T05:25:55.648Z,68.79
2018-04-25T05:28:23.903Z,68.25
2018-04-25T05:30:52.259Z,67.82
2018-04-25T05:33:20.512Z,67.77
2018-04-25T05:35:48.810Z,67.16
2018-04-25T05:38:17.066Z,66.77
2018-04-25T05:40:45.343Z,66.43
2018-04-25T05:43:13.604Z,66.15
2018-04-25T05:45:42.057Z,66.01
2018-04-25T05:48:10.343Z,66.07
2018-04-25T05:50:38.623Z,65.99
2018-04-25T05:53:06.935Z,65.85
2018-04-25T05:55:35.711Z,65.57
2018-04-25T05:58:03.966Z,65.42
2018-04-25T06:00:32.257Z,65.42
2018-04-25T06:03:00.565Z,65.13
2018-04-25T06:05:28.872Z,65.04
2018-04-25T06:07:57.161Z,64.90
2018-04-25T06:10:25.462Z,64.85
2018-04-25T06:12:53.845Z,64.62
2018-04-25T06:15:22.231Z,64.28
2018-04-25T06:17:50.995Z,64.19
2018-04-25T06:20:19.951Z,63.78
2018-04-25T06:22:48.180Z,63.46
2018-04-25T06:25:16.974Z,63.20
2018-04-25T06:27:45.275Z,62.77
2018-04-25T06:30:13.595Z,62.75
2018-04-25T06:32:41.806Z,62.72
2018-04-25T06:35:10.055Z,62.23
2018-04-25T06:37:38.404Z,61.18
2018-04-25T06:40:07.675Z,61.22
2018-04-25T06:42:36.059Z,60.93
2018-04-25T06:45:04.363Z,60.67
2018-04-25T06:47:32.609Z,60.47
2018-04-25T06:50:00.882Z,60.51
2018-04-25T06:52:29.164Z,60.19
2018-04-25T06:54:57.451Z,60.29
2018-04-25T06:57:25.766Z,60.57
2018-04-25T06:59:54.046Z,60.41
2018-04-25T07:02:22.308Z,60.38
2018-04-25T07:04:50.630Z,60.48
2018-04-25T07:07:18.939Z,59.85
2018-04-25T07:09:47.272Z,59.63
2018-04-25T07:12:15.579Z,59.28
2018-04-25T07:14:43.982Z,59.67
2018-04-25T07:17:12.620Z,59.99
2018-04-25T07:19:41.070Z,59.63
2018-04-25T07:22:09.364Z,59.53
2018-04-25T07:24:37.632Z,59.32
2018-04-25T07:27:06.013Z,58.97
2018-04-25T07:29:35.523Z,58.71
2018-04-25T07:32:03.821Z,58.67
2018-04-25T07:34:32.206Z,58.42
2018-04-25T07:37:00.499Z,58.28
2018-04-25T07:39:29.264Z,57.45
2018-04-25T07:41:57.664Z,57.53
2018-04-25T07:44:25.895Z,57.96
2018-04-25T07:46:54.180Z,57.25
2018-04-25T07:49:22.461Z,57.24
2018-04-25T07:51:50.762Z,57.23
2018-04-25T07:54:20.014Z,56.97
2018-04-25T07:56:48.336Z,57.09
2018-04-25T07:59:17.474Z,56.52
2018-04-25T08:01:45.776Z,56.03
2018-04-25T08:04:14.666Z,56.04
2018-04-25T08:06:44.038Z,55.61
2018-04-25T08:09:12.440Z,55.13
2018-04-25T08:11:40.860Z,55.14
2018-04-25T08:14:21.056Z,55.17
2018-04-25T08:17:01.138Z,55.04
2018-04-25T08:19:41.138Z,54.85
2018-04-25T08:22:09.403Z,54.56
2018-04-25T08:24:37.705Z,54.54
2018-04-25T08:27:06.031Z,54.45
2018-04-25T08:29:34.314Z,53.50
2018-04-25T08:32:02.583Z,52.96
2018-04-25T08:34:31.006Z,53.37
2018-04-25T08:36:59.329Z,53.60
2018-04-25T08:39:27.675Z,54.12
2018-04-25T08:41:55.965Z,54.84
2018-04-25T08:44:24.274Z,55.42
2018-04-25T08:46:52.537Z,55.48
2018-04-25T08:49:20.828Z,55.32
2018-04-25T08:51:49.603Z,55.24
2018-04-25T08:54:17.900Z,55.09
2018-04-25T08:56:46.148Z,54.85
2018-04-25T08:59:14.503Z,54.71
2018-04-25T09:01:42.714Z,54.54
2018-04-25T09:04:11.135Z,54.70
2018-04-25T09:06:39.402Z,54.55
2018-04-25T09:09:07.714Z,54.75
2018-04-25T09:11:36.307Z,55.15
2018-04-25T09:14:04.575Z,55.35
2018-04-25T09:16:32.877Z,55.44
2018-04-25T09:19:01.505Z,55.48
2018-04-25T09:21:29.867Z,55.57
2018-04-25T09:23:58.155Z,55.44
2018-04-25T09:26:27.115Z,55.78
2018-04-25T09:28:55.460Z,55.41
2018-04-25T09:31:23.746Z,55.69
2018-04-25T09:33:52.105Z,55.10
2018-04-25T09:36:20.376Z,55.40
2018-04-25T09:38:48.640Z,55.30
2018-04-25T09:41:16.938Z,55.17
2018-04-25T09:43:45.204Z,54.90
2018-04-25T09:46:13.502Z,55.21
2018-04-25T09:48:41.801Z,55.23
2018-04-25T09:51:10.082Z,54.77
2018-04-25T09:53:38.419Z,54.21
2018-04-25T09:56:06.683Z,53.08
2018-04-25T09:58:35.014Z,52.88
2018-04-25T10:01:03.261Z,52.99
2018-04-25T10:03:31.638Z,52.97
2018-04-25T10:05:59.904Z,52.60
2018-04-25T10:08:28.412Z,53.21
2018-04-25T10:10:56.741Z,53.51
2018-04-25T10:13:24.978Z,53.73
2018-04-25T10:15:53.245Z,53.87
2018-04-25T10:18:21.633Z,54.05
2018-04-25T10:20:49.868Z,53.73
2018-04-25T10:23:18.203Z,52.64
2018-04-25T10:25:46.625Z,52.16
2018-04-25T10:28:14.835Z,51.94
2018-04-25T10:30:43.163Z,52.41
2018-04-25T10:33:11.439Z,53.16
2018-04-25T10:35:40.743Z,53.60
2018-04-25T10:38:09.034Z,53.91
2018-04-25T10:40:37.413Z,53.85
2018-04-25T10:43:05.675Z,54.23
2018-04-25T10:45:34.004Z,54.59
2018-04-25T10:48:02.310Z,54.64
2018-04-25T10:50:30.654Z,55.27
2018-04-25T10:52:59.878Z,55.53
2018-04-25T10:55:28.260Z,55.35
2018-04-25T10:57:56.496Z,55.47
2018-04-25T11:00:24.815Z,55.93
2018-04-25T11:02:53.108Z,56.24
2018-04-25T11:05:21.455Z,55.95
2018-04-25T11:07:49.725Z,55.59
2018-04-25T11:10:19.048Z,55.34
2018-04-25T11:12:48.345Z,55.32
2018-04-25T11:15:17.035Z,55.79
2018-04-25T11:17:46.015Z,55.78
2018-04-25T11:20:14.938Z,56.07
2018-04-25T11:22:43.273Z,56.74
2018-04-25T11:25:12.139Z,57.77
2018-04-25T11:27:40.985Z,57.63
2018-04-25T11:30:09.245Z,57.53
2018-04-25T11:32:38.907Z,57.23
2018-04-25T11:35:07.628Z,57.04
2018-04-25T11:37:36.606Z,56.60
2018-04-25T11:40:04.934Z,56.33
2018-04-25T11:42:37.826Z,56.32
2018-04-25T11:45:09.882Z,56.21
2018-04-25T11:47:38.249Z,56.39
2018-04-25T11:50:09.344Z,56.39
2018-04-25T11:52:37.689Z,55.92
2018-04-25T11:55:07.882Z,55.62
2018-04-25T11:57:36.790Z,55.43
2018-04-25T12:00:05.374Z,55.14
2018-04-25T12:02:33.961Z,55.25
2018-04-25T12:05:03.308Z,54.82
2018-04-25T12:07:31.553Z,54.67
2018-04-25T12:09:59.857Z,54.94
2018-04-25T12:12:28.596Z,54.63
2018-04-25T12:14:56.889Z,54.60
2018-04-25T12:17:25.170Z,54.93
2018-04-25T12:19:53.478Z,55.24
2018-04-25T12:22:21.743Z,55.50
2018-04-25T12:24:50.018Z,55.79
2018-04-25T12:27:18.347Z,56.34
2018-04-25T12:29:46.731Z,57.87
2018-04-25T12:32:15.050Z,57.55
2018-04-25T12:34:43.365Z,57.35
2018-04-25T12:37:11.604Z,56.81
2018-04-25T12:39:39.910Z,56.34
2018-04-25T12:42:08.596Z,55.95
2018-04-25T12:44:37.234Z,55.73
2018-04-25T12:47:05.506Z,55.95
2018-04-25T12:49:33.844Z,55.99
2018-04-25T12:52:02.164Z,56.36
2018-04-25T12:54:30.501Z,56.67
2018-04-25T12:56:58.863Z,57.19
2018-04-25T12:59:27.236Z,57.19
2018-04-25T13:01:55.528Z,57.08
2018-04-25T13:04:23.816Z,57.23
2018-04-25T13:06:52.263Z,57.00
2018-04-25T13:09:20.560Z,56.64
2018-04-25T13:11:48.871Z,56.79
2018-04-25T13:14:17.147Z,56.70
2018-04-25T13:16:45.440Z,56.32
2018-04-25T13:19:13.783Z,56.47
2018-04-25T13:21:42.081Z,56.41
2018-04-25T13:24:12.292Z,55.07
2018-04-25T13:26:40.609Z,54.02
2018-04-25T13:29:08.902Z,53.19
2018-04-25T13:31:37.290Z,52.12
2018-04-25T13:34:05.552Z,51.80
2018-04-25T13:36:34.446Z,51.24
2018-04-25T13:39:02.748Z,50.08
2018-04-25T13:41:31.235Z,50.19
2018-04-25T13:43:59.449Z,48.76
2018-04-25T13:46:27.718Z,47.85
2018-04-25T13:48:55.986Z,46.67
2018-04-25T13:51:24.278Z,45.70
2018-04-25T13:53:52.651Z,46.13
2018-04-25T13:56:22.724Z,46.08
2018-04-25T13:58:51.035Z,47.01
2018-04-25T14:01:19.395Z,48.24
2018-04-25T14:03:47.664Z,48.40
2018-04-25T14:06:16.590Z,48.48
2018-04-25T14:08:44.910Z,47.38
2018-04-25T14:11:14.103Z,47.45
2018-04-25T14:13:42.386Z,47.33
2018-04-25T14:16:10.635Z,47.23
2018-04-25T14:18:38.914Z,46.99
2018-04-25T14:21:07.243Z,47.23
2018-04-25T14:23:35.518Z,47.54
2018-04-25T14:26:03.787Z,47.37
2018-04-25T14:28:32.078Z,47.75
2018-04-25T14:31:00.347Z,46.94
2018-04-25T14:33:28.652Z,46.40
2018-04-25T14:35:57.202Z,46.45
2018-04-25T14:38:25.459Z,46.11
2018-04-25T14:40:53.735Z,46.15
2018-04-25T14:43:22.060Z,44.73
2018-04-25T14:45:50.310Z,44.42
2018-04-25T14:48:18.697Z,44.59
2018-04-25T14:50:46.890Z,45.00
2018-04-25T14:53:15.179Z,45.15
2018-04-25T14:55:43.442Z,44.14
2018-04-25T14:58:11.782Z,43.02
2018-04-25T15:00:40.053Z,42.04
2018-04-25T15:03:08.411Z,40.44
2018-04-25T15:05:36.737Z,40.17
2018-04-25T15:08:05.054Z,40.04
2018-04-25T15:10:33.394Z,39.24
2018-04-25T15:13:02.091Z,38.17
2018-04-25T15:15:30.443Z,39.06
2018-04-25T15:17:58.685Z,40.37
2018-04-25T15:20:27.010Z,41.22
2018-04-25T15:22:55.281Z,41.75
2018-04-25T15:25:23.750Z,42.09
2018-04-25T15:27:52.013Z,42.48
2018-04-25T15:30:20.584Z,42.98
2018-04-25T15:32:48.945Z,43.96
2018-04-25T15:35:18.536Z,44.55
2018-04-25T15:37:48.413Z,43.50
2018-04-25T15:40:16.680Z,43.48
2018-04-25T15:42:45.100Z,44.34
2018-04-25T15:45:14.017Z,43.93
2018-04-25T15:47:43.627Z,43.55
2018-04-25T15:50:12.260Z,43.68
2018-04-25T15:52:41.845Z,43.97
2018-04-25T15:55:10.909Z,44.23
2018-04-25T15:57:39.677Z,47.22
2018-04-25T16:00:07.922Z,47.83
2018-04-25T16:02:36.231Z,48.88
2018-04-25T16:05:04.534Z,50.57
2018-04-25T16:07:33.516Z,50.76
2018-04-25T16:10:01.835Z,50.23
2018-04-25T16:12:30.155Z,49.83
2018-04-25T16:14:58.593Z,50.78
2018-04-25T16:17:26.928Z,51.80
2018-04-25T16:19:55.218Z,50.49
2018-04-25T16:22:23.517Z,50.19
2018-04-25T16:24:52.023Z,49.81
2018-04-25T16:27:20.284Z,49.99
2018-04-25T16:29:48.662Z,51.14
2018-04-25T16:32:16.929Z,51.17
2018-04-25T16:34:45.240Z,51.59
2018-04-25T16:37:13.528Z,52.72
2018-04-25T16:39:41.830Z,56.25
2018-04-25T16:42:10.112Z,59.07
2018-04-25T16:44:38.518Z,58.52
2018-04-25T16:47:06.712Z,59.95
2018-04-25T16:49:35.182Z,60.41
2018-04-25T16:52:03.648Z,61.32
2018-04-25T16:54:32.123Z,61.82
2018-04-25T16:57:00.926Z,63.03
2018-04-25T16:59:29.227Z,61.98
2018-04-25T17:01:57.571Z,62.56
2018-04-25T17:04:25.989Z,61.76
2018-04-25T17:06:54.246Z,64.51
2018-04-25T17:09:22.620Z,65.40
2018-04-25T17:11:50.917Z,63.47
2018-04-25T17:14:19.202Z,62.92
2018-04-25T17:16:47.821Z,63.07
2018-04-25T17:19:16.056Z,62.91
2018-04-25T17:21:44.400Z,63.00
2018-04-25T17:24:12.681Z,63.30
2018-04-25T17:26:41.842Z,62.44
2018-04-25T17:29:10.128Z,62.48
2018-04-25T17:31:38.420Z,62.70
2018-04-25T17:34:06.701Z,62.55
2018-04-25T17:36:35.499Z,62.67
2018-04-25T17:39:03.865Z,61.60
2018-04-25T17:41:32.171Z,62.35
2018-04-25T17:44:00.436Z,61.59
2018-04-25T17:46:28.747Z,62.05
2018-04-25T17:48:57.045Z,62.51
2018-04-25T17:51:25.353Z,63.26
2018-04-25T17:53:53.643Z,63.53
2018-04-25T17:56:21.905Z,63.29
2018-04-25T17:58:50.258Z,63.07
2018-04-25T18:01:18.659Z,63.25
2018-04-25T18:03:46.970Z,63.44
2018-04-25T18:06:15.614Z,63.70
2018-04-25T18:08:43.909Z,64.25
2018-04-25T18:11:12.174Z,64.30
2018-04-25T18:13:40.480Z,64.18
2018-04-25T18:16:08.739Z,64.34
2018-04-25T18:18:37.055Z,65.18
2018-04-25T18:21:05.323Z,65.18
2018-04-25T18:23:33.940Z,65.26
2018-04-25T18:26:02.529Z,65.79
2018-04-25T18:28:30.827Z,66.76
2018-04-25T18:30:59.396Z,65.68
2018-04-25T18:33:27.681Z,65.46
2018-04-25T18:35:55.972Z,66.28
2018-04-25T18:38:24.285Z,66.94
2018-04-25T18:40:53.289Z,66.69
2018-04-25T18:43:21.744Z,65.98
2018-04-25T18:45:50.013Z,65.92
2018-04-25T18:48:18.375Z,65.71
2018-04-25T18:50:46.631Z,65.69
2018-04-25T18:53:14.943Z,65.17
2018-04-25T18:55:43.978Z,65.08
2018-04-25T18:58:12.273Z,65.14
2018-04-25T19:00:40.588Z,65.36
2018-04-25T19:03:08.897Z,65.45
2018-04-25T19:05:37.255Z,65.57
2018-04-25T19:08:05.495Z,65.61
2018-04-25T19:10:33.867Z,66.67
2018-04-25T19:13:02.143Z,67.67
2018-04-25T19:15:30.685Z,67.16
2018-04-25T19:17:58.954Z,67.64
2018-04-25T19:20:27.284Z,67.56
2018-04-25T19:22:55.557Z,68.77
2018-04-25T19:25:23.839Z,67.33
2018-04-25T19:27:52.127Z,67.26
2018-04-25T19:30:20.499Z,67.50
2018-04-25T19:32:48.787Z,68.12
2018-04-25T19:35:17.152Z,67.93
2018-04-25T19:37:45.493Z,68.49
2018-04-25T19:40:13.798Z,68.28
2018-04-25T19:42:42.076Z,69.40
2018-04-25T19:45:10.383Z,69.91
2018-04-25T19:47:39.042Z,68.98
2018-04-25T19:50:07.421Z,69.50
2018-04-25T19:52:35.711Z,69.11
2018-04-25T19:55:04.338Z,68.13
2018-04-25T19:57:32.699Z,67.99
2018-04-25T20:00:01.898Z,68.18
2018-04-25T20:02:30.221Z,68.71
2018-04-25T20:04:59.728Z,69.38
2018-04-25T20:07:28.412Z,69.50
2018-04-25T20:09:56.787Z,69.36
2018-04-25T20:12:25.075Z,69.09
2018-04-25T20:14:54.488Z,69.58
2018-04-25T20:17:22.807Z,69.31
2018-04-25T20:19:51.137Z,69.47
2018-04-25T20:22:19.413Z,69.35
2018-04-25T20:24:48.518Z,69.33
2018-04-25T20:27:17.083Z,68.96
2018-04-25T20:29:46.316Z,69.74
2018-04-25T20:32:17.115Z,69.41
2018-04-25T20:34:45.681Z,70.12
2018-04-25T20:37:13.997Z,70.35
2018-04-25T20:39:42.934Z,69.99
2018-04-25T20:42:11.203Z,69.97
2018-04-25T20:44:39.633Z,69.85
2018-04-25T20:47:07.930Z,70.43
2018-04-25T20:49:36.254Z,70.37
2018-04-25T20:52:04.534Z,70.43
2018-04-25T20:54:32.846Z,70.54
2018-04-25T20:57:01.177Z,71.29
2018-04-25T20:59:30.235Z,71.36
2018-04-25T21:01:58.551Z,71.45
2018-04-25T21:04:26.903Z,71.60
2018-04-25T21:06:55.323Z,71.48
2018-04-25T21:09:23.638Z,71.23
2018-04-25T21:11:51.994Z,71.31
2018-04-25T21:14:20.346Z,71.33
2018-04-25T21:16:48.619Z,71.29
2018-04-25T21:19:16.897Z,71.42
2018-04-25T21:21:45.191Z,71.43
2018-04-25T21:24:13.556Z,71.41
2018-04-25T21:26:41.815Z,71.94
2018-04-25T21:29:10.071Z,71.26
2018-04-25T21:31:38.404Z,71.79
2018-04-25T21:34:06.666Z,71.16
2018-04-25T21:36:35.009Z,70.90
2018-04-25T21:39:03.245Z,70.74
2018-04-25T21:41:31.544Z,71.14
2018-04-25T21:43:59.788Z,71.52
2018-04-25T21:46:28.099Z,71.23
2018-04-25T21:48:56.415Z,71.19
2018-04-25T21:51:24.751Z,71.49
2018-04-25T21:53:52.978Z,71.09
2018-04-25T21:56:21.316Z,71.18
2018-04-25T21:58:49.693Z,71.26
2018-04-25T22:01:18.090Z,71.55
2018-04-25T22:03:46.406Z,71.43
2018-04-25T22:06:14.688Z,71.48
2018-04-25T22:08:42.972Z,71.20
2018-04-25T22:11:11.393Z,71.28
2018-04-25T22:13:39.687Z,71.28
2018-04-25T22:16:08.047Z,71.38
2018-04-25T22:18:36.313Z,71.33
2018-04-25T22:21:04.603Z,71.27
2018-04-25T22:23:32.970Z,71.03
2018-04-25T22:26:01.227Z,71.18
2018-04-25T22:28:29.535Z,70.87
2018-04-25T22:30:57.867Z,70.96
2018-04-25T22:33:26.156Z,70.65
2018-04-25T22:35:54.427Z,70.49
2018-04-25T22:38:22.722Z,70.35
2018-04-25T22:40:50.983Z,70.85
2018-04-25T22:43:19.282Z,70.88
2018-04-25T22:45:47.551Z,70.95
2018-04-25T22:48:15.870Z,71.29
2018-04-25T22:50:44.127Z,70.58
2018-04-25T22:53:12.464Z,70.63
2018-04-25T22:55:40.773Z,70.48
2018-04-25T22:58:09.067Z,70.24
2018-04-25T23:00:37.373Z,70.17
2018-04-25T23:03:06.540Z,69.72
2018-04-25T23:05:34.801Z,69.98
2018-04-25T23:08:03.311Z,69.87
2018-04-25T23:10:31.580Z,69.48
2018-04-25T23:12:59.870Z,68.82
2018-04-25T23:15:28.141Z,68.50
2018-04-25T23:17:56.410Z,68.51
2018-04-25T23:20:24.682Z,68.67
2018-04-25T23:22:52.952Z,68.72
2018-04-25T23:25:21.235Z,68.78
2018-04-25T23:27:49.504Z,68.81
2018-04-25T23:30:17.796Z,68.81
2018-04-25T23:32:46.053Z,69.06
2018-04-25T23:35:14.341Z,69.10
2018-04-25T23:37:42.635Z,68.81
2018-04-25T23:40:10.913Z,68.83
2018-04-25T23:42:39.179Z,68.86
2018-04-25T23:45:07.666Z,68.79
2018-04-25T23:47:35.932Z,68.59
2018-04-25T23:50:04.208Z,68.50
2018-04-25T23:52:32.484Z,69.09
2018-04-25T23:55:00.762Z,69.50
2018-04-25T23:57:29.062Z,69.45
2018-04-25T23:59:57.322Z,68.96
